Terminal Aerodrome Forecast
Issued by NWS

Home | Current Version | Previous Version | Text Only | Print | Product List | Glossary On
Versions: 1 2 3 4 5 6 7 8 9 10 11 12 13 14 15 16
000
FTUS43 KGRR 192322
TAFMKG
TAF
KMKG 192322Z 2000/2024 30004KT P6SM SCT250
     FM200300 09005KT P6SM BKN250
     FM201200 12006KT 5SM BR BKN200
     FM201400 14010KT P6SM SCT120 OVC200
     FM202100 14012G22KT P6SM OVC080=

USA.gov is the U.S. government's official web portal to all federal, state and local government web resources and services.